Flight Track Log - Related Links

Times and Time Zones

All times are in EDT time to prevent confusion due to time zone crossing. See the SLI524 flight status page for this flight to view local times or setup timezone preferences in your user account.

Time Position Orientation Groundspeed Altitude Reporting Facility
EDT Latitude Longitude Course Direction KTS MPH feet Rate Location/Type
Mon 07:35:00 AM 20.7937 -90.7246 262° West  Level Estimated
Mon 07:36:00 AM 20.7790 -90.8311 262° West  Level Estimated
Mon 07:37:00 AM 20.7642 -90.9377 262° West  Level Estimated
Mon 07:38:00 AM 20.7494 -91.0442 262° West  Level Estimated
Mon 07:39:00 AM 20.7345 -91.1507 262° West  Level Estimated
Mon 07:40:00 AM 20.7196 -91.2572 261° West  Level Estimated
Mon 07:41:00 AM 20.7045 -91.3637 261° West  Level Estimated
Mon 07:42:00 AM 20.6894 -91.4702 261° West  Level Estimated
Mon 07:43:00 AM 20.6743 -91.5766 261° West  Level Estimated
Mon 07:44:00 AM 20.6591 -91.6830 261° West  Level Estimated
Mon 07:45:00 AM 20.6438 -91.7894 261° West  Level Estimated
Mon 07:46:00 AM 20.6285 -91.8957 261° West  Level Estimated
Mon 07:47:00 AM 20.6130 -92.0021 261° West  Level Estimated
Mon 07:48:00 AM 20.5976 -92.1084 261° West  Level Estimated
Mon 07:49:00 AM 20.5820 -92.2147 261° West  Level Estimated
Mon 07:50:00 AM 20.5664 -92.3210 261° West  Level Estimated
Mon 07:51:00 AM 20.5507 -92.4272 261° West  Level Estimated
Mon 07:52:00 AM 20.5350 -92.5335 261° West  Level Estimated
Mon 07:53:00 AM 20.5192 -92.6397 261° West  Level Estimated
Mon 07:54:00 AM 20.5033 -92.7459 261° West  Level Estimated
Mon 07:55:00 AM 20.4874 -92.8520 261° West  Level Estimated
Mon 07:56:00 AM 20.4714 -92.9582 261° West  Level Estimated
Mon 07:57:00 AM 20.4553 -93.0643 261° West  Level Estimated
Mon 07:58:00 AM 20.4392 -93.1704 261° West  Level Estimated
Mon 07:59:00 AM 20.4230 -93.2765 261° West  Level Estimated
Mon 08:00:00 AM 20.4068 -93.3826 261° West  Level Estimated
Mon 08:01:00 AM 20.3905 -93.4886 261° West  Level Estimated
Mon 08:02:00 AM 20.3741 -93.5946 261° West  Level Estimated
Mon 08:03:00 AM 20.3576 -93.7006 261° West  Level Estimated
Mon 08:04:00 AM 20.3411 -93.8066 261° West  Level Estimated
Mon 08:05:00 AM 20.3246 -93.9125 261° West  Level Estimated
Mon 08:06:00 AM 20.3079 -94.0184 261° West  Level Estimated
Mon 08:07:00 AM 20.2912 -94.1243 260° West  Level Estimated
Mon 08:08:00 AM 20.2745 -94.2302 260° West  Level Estimated
Mon 08:09:00 AM 20.2576 -94.3361 260° West  Level Estimated
Mon 08:10:00 AM 20.2407 -94.4419 260° West  Level Estimated
Mon 08:11:00 AM 20.2238 -94.5477 260° West  Level Estimated
Mon 08:12:00 AM 20.2068 -94.6535 260° West  Level Estimated
Mon 08:13:00 AM 20.1897 -94.7592 260° West  Level Estimated
Mon 08:14:00 AM 20.1726 -94.8650 260° West  Level Estimated
Mon 08:15:00 AM 20.1553 -94.9707 260° West  Level Estimated
Mon 08:16:00 AM 20.1381 -95.0764 260° West  Level Estimated
Mon 08:17:00 AM 20.1207 -95.1821 260° West  Level Estimated
Mon 08:18:00 AM 20.1033 -95.2877 260° West  Level Estimated
Mon 08:19:00 AM 20.0859 -95.3933 260° West  Level Estimated
Mon 08:20:00 AM 20.0684 -95.4989 260° West  Level Estimated
Mon 08:21:00 AM 20.0508 -95.6045 260° West  Level Estimated
Mon 08:22:00 AM 20.0331 -95.7100 260° West  Level Estimated
Mon 08:23:00 AM 20.0154 -95.8156 260° West  Level Estimated
Mon 08:24:00 AM 19.9977 -95.9211 260° West  Level Estimated
Mon 08:25:00 AM 19.9798 -96.0265 260° West  Level Estimated
Mon 08:26:00 AM 19.9619 -96.1320 260° West  Level Estimated
Mon 08:27:00 AM 19.9440 -96.2374 260° West  Level Estimated
Mon 08:28:00 AM 19.9259 -96.3428 260° West  Level Estimated
Mon 08:29:00 AM 19.9079 -96.4482 260° West  Level Estimated
Mon 08:30:00 AM 19.8897 -96.5536 260° West  Level Estimated
Mon 08:31:00 AM 19.8715 -96.6589 260° West  Level Estimated
Mon 08:32:00 AM 19.8532 -96.7642 260° West  Level Estimated
Mon 08:33:00 AM 19.8349 -96.8695 260° West  Level Estimated
Mon 08:34:00 AM 19.8165 -96.9748 259° West  Level Estimated
Mon 08:35:00 AM 19.7980 -97.0800 259° West  Level Estimated
Mon 08:36:00 AM 19.7795 -97.1852 259° West  Level Estimated
Mon 08:37:00 AM 19.7610 -97.2904 259° West  Level Estimated
Mon 08:38:00 AM 19.7423 -97.3956 259° West  Level Estimated
Mon 08:39:00 AM 19.7236 -97.5007 259° West  Level Estimated
Mon 08:40:00 AM 19.7048 -97.6058 259° West  Level Estimated
Mon 08:41:00 AM 19.6860 -97.7109 259° West  Level Estimated
Mon 08:42:00 AM 19.6672 -97.8160 259° West  Level Estimated
Mon 08:43:00 AM 19.6482 -97.9210 259° West  Level Estimated
Mon 08:44:00 AM 19.6292 -98.0260 259° West  Level Estimated
Mon 08:45:00 AM 19.6101 -98.1310 259° West  Level Estimated
Mon 08:46:00 AM 19.5910 -98.2360 259° West  Level Estimated
Mon 08:47:00 AM 19.5718 -98.3409 259° West  Level Estimated
Mon 08:48:00 AM 19.5525 -98.4458 259° West  Level Estimated
Mon 08:49:00 AM 19.5332 -98.5507 259° West  Level Estimated
Mon 08:50:00 AM 19.5139 -98.6556 259° West  Level Estimated
Mon 08:51:00 AM 19.4944 -98.7605 259° West  Level Estimated
Mon 08:52:00 AM 19.4750 -98.8653 259° West  Level Estimated
Mon 08:53:00 AM 19.4554 -98.9701 259° West  Level Estimated
Mon 08:54:00 AM 19.4363 -99.0721 259° West  Level Estimated
Mon 08:55:00 AM 19.4363 -99.0721 43° Northeast  Level Estimated
Mon 08:56:00 AM 19.4363 -99.0721 43° Northeast  Level Estimated
Mon 08:57:00 AM 19.4363 -99.0721 43° Northeast  Level Estimated
Mon 08:58:00 AM 19.4363 -99.0721 43° Northeast  Level Estimated
Mon 08:59:00 AM 19.4363 -99.0721 43° Northeast  Level Estimated
Mon 09:00:00 AM 19.4363 -99.0721 43° Northeast  Level Estimated
Mon 09:01:00 AM 19.4363 -99.0721 43° Northeast  Level Estimated
Mon 09:02:00 AM 19.4363 -99.0721 43° Northeast  Level Estimated
Mon 09:03:00 AM 19.4363 -99.0721 43° Northeast  Level Estimated
Mon 09:04:00 AM 19.4363 -99.0721 43° Northeast  Level Estimated
Mon 09:05:00 AM 19.4363 -99.0721 43° Northeast  Level Estimated
Mon 09:06:00 AM 19.4363 -99.0721 43° Northeast  Level Estimated
Mon 09:07:00 AM 19.4363 -99.0721 43° Northeast  Level Estimated
Mon 09:08:00 AM 19.4363 -99.0721 43° Northeast  Level Estimated
Mon 09:09:00 AM 19.4363 -99.0721 43° Northeast  Level Estimated
Mon 09:10:00 AM 19.4363 -99.0721 43° Northeast  Level Estimated

Login

Don't have an account? Register now (free) for customized features, flight alerts, and more!